createdAt,value
2019-03-10T00:00:38.858Z,96672.72
2019-03-10T00:04:40.767Z,96671.89
2019-03-10T00:08:42.706Z,96658.55
2019-03-10T00:12:44.620Z,96654.22
2019-03-10T00:16:46.523Z,96646.65
2019-03-10T00:20:48.423Z,96641.27
2019-03-10T00:24:50.326Z,96643.49
2019-03-10T00:28:52.255Z,96646.00
2019-03-10T00:32:54.233Z,96647.56
2019-03-10T00:36:56.144Z,96636.86
2019-03-10T00:41:11.165Z,96632.13
2019-03-10T00:45:34.085Z,96623.83
2019-03-10T00:50:29.115Z,96612.19
2019-03-10T00:54:31.029Z,96610.89
2019-03-10T00:58:32.938Z,96608.27
2019-03-10T01:02:34.848Z,96590.96
2019-03-10T01:06:36.755Z,96602.08
2019-03-10T01:10:38.663Z,96595.83
2019-03-10T01:14:40.561Z,96579.41
2019-03-10T01:18:43.882Z,96568.37
2019-03-10T01:22:45.800Z,96568.70
2019-03-10T01:26:47.694Z,96556.22
2019-03-10T01:31:06.108Z,96541.08
2019-03-10T01:35:21.574Z,96525.63
2019-03-10T01:39:23.621Z,96534.20
2019-03-10T01:43:25.529Z,96536.63
2019-03-10T01:47:27.451Z,96532.69
2019-03-10T01:51:29.555Z,96517.83
2019-03-10T01:55:31.467Z,96513.33
2019-03-10T01:59:33.384Z,96505.78
2019-03-10T02:03:35.287Z,96488.68
2019-03-10T02:07:37.202Z,96491.48
2019-03-10T02:11:39.090Z,96478.08
2019-03-10T02:15:40.998Z,96464.75
2019-03-10T02:19:43.309Z,96466.01
2019-03-10T02:23:45.196Z,96465.00
2019-03-10T02:27:47.106Z,96460.23
2019-03-10T02:31:49.017Z,96455.40
2019-03-10T02:35:50.914Z,96438.91
2019-03-10T02:39:52.823Z,96437.28
2019-03-10T02:43:55.035Z,96443.27
2019-03-10T02:47:56.932Z,96443.28
2019-03-10T02:51:58.838Z,96446.66
2019-03-10T02:56:00.724Z,96443.88
2019-03-10T03:00:02.690Z,96433.02
2019-03-10T03:04:05.838Z,96424.20
2019-03-10T03:08:07.834Z,96419.95
2019-03-10T03:12:09.738Z,96405.27
2019-03-10T03:16:12.612Z,96406.73
2019-03-10T03:20:14.683Z,96395.39
2019-03-10T03:24:16.621Z,96389.62
2019-03-10T03:28:18.488Z,96373.16
2019-03-10T03:32:20.524Z,96360.07
2019-03-10T03:36:27.311Z,96354.42
2019-03-10T03:40:29.568Z,96345.28
2019-03-10T03:44:31.490Z,96343.95
2019-03-10T03:48:33.398Z,96334.58
2019-03-10T03:52:35.286Z,96324.04
2019-03-10T03:56:37.420Z,96325.09
2019-03-10T04:00:39.376Z,96319.09
2019-03-10T04:04:41.289Z,96313.68
2019-03-10T04:08:43.215Z,96306.80
2019-03-10T04:12:45.145Z,96297.72
2019-03-10T04:16:47.092Z,96302.72
2019-03-10T04:20:49.006Z,96295.39
2019-03-10T04:24:50.906Z,96301.02
2019-03-10T04:28:52.894Z,96289.67
2019-03-10T04:32:54.814Z,96290.88
2019-03-10T04:36:56.728Z,96282.37
2019-03-10T04:40:58.735Z,96277.42
2019-03-10T04:45:00.683Z,96277.57
2019-03-10T04:49:02.735Z,96266.97
2019-03-10T04:53:04.856Z,96264.41
2019-03-10T04:57:09.367Z,96263.79
2019-03-10T05:01:11.341Z,96254.12
2019-03-10T05:05:14.538Z,96253.34
2019-03-10T05:09:16.687Z,96250.64
2019-03-10T05:13:18.608Z,96235.21
2019-03-10T05:17:20.540Z,96219.74
2019-03-10T05:21:22.433Z,96209.41
2019-03-10T05:25:25.351Z,96196.11
2019-03-10T05:29:27.257Z,96179.23
2019-03-10T05:33:29.698Z,96162.06
2019-03-10T05:37:49.986Z,96155.27
2019-03-10T05:41:53.856Z,96150.72
2019-03-10T05:45:55.954Z,96153.79
2019-03-10T05:49:57.859Z,96138.23
2019-03-10T05:54:00.936Z,96113.27
2019-03-10T05:58:02.865Z,96111.03
2019-03-10T06:02:04.766Z,96115.18
2019-03-10T06:06:06.674Z,96108.77
2019-03-10T06:10:08.639Z,96103.50
2019-03-10T06:14:10.518Z,96094.30
2019-03-10T06:18:13.884Z,96091.80
2019-03-10T06:22:16.084Z,96088.87
2019-03-10T06:26:17.945Z,96082.02
2019-03-10T06:30:19.910Z,96070.18
2019-03-10T06:34:23.614Z,96073.45
2019-03-10T06:38:25.504Z,96074.02
2019-03-10T06:42:27.412Z,96069.77
2019-03-10T06:46:29.587Z,96058.09
2019-03-10T06:50:31.490Z,96047.17
2019-03-10T06:54:33.376Z,96043.28
2019-03-10T06:58:35.284Z,96036.91
2019-03-10T07:02:37.190Z,96026.94
2019-03-10T07:06:39.084Z,96022.34
2019-03-10T07:10:40.999Z,96012.23
2019-03-10T07:14:42.885Z,96009.24
2019-03-10T07:18:45.760Z,96007.53
2019-03-10T07:22:47.672Z,95991.98
2019-03-10T07:26:49.572Z,95987.96
2019-03-10T07:30:53.092Z,95976.00
2019-03-10T07:35:05.409Z,95966.21
2019-03-10T07:39:09.830Z,95959.13
2019-03-10T07:43:13.366Z,95950.98
2019-03-10T07:47:23.040Z,95948.91
2019-03-10T07:51:26.600Z,95946.50
2019-03-10T07:55:40.066Z,95935.53
2019-03-10T07:59:50.965Z,95915.37
2019-03-10T08:03:54.500Z,95907.93
2019-03-10T08:08:14.279Z,95911.88
2019-03-10T08:12:23.729Z,95912.28
2019-03-10T08:16:30.297Z,95899.78
2019-03-10T08:20:45.743Z,95897.25
2019-03-10T08:25:01.739Z,95901.07
2019-03-10T08:29:23.438Z,95886.17
2019-03-10T08:33:32.799Z,95874.11
2019-03-10T08:37:39.321Z,95854.45
2019-03-10T08:41:42.872Z,95840.41
2019-03-10T08:45:49.323Z,95845.58
2019-03-10T08:49:52.935Z,95836.16
2019-03-10T08:53:56.480Z,95832.55
2019-03-10T08:58:02.884Z,95825.81
2019-03-10T09:02:09.288Z,95825.86
2019-03-10T09:06:28.993Z,95814.52
2019-03-10T09:10:41.409Z,95823.08
2019-03-10T09:14:45.101Z,95755.06
2019-03-10T09:19:03.744Z,95793.85
2019-03-10T09:23:13.507Z,95800.78
2019-03-10T09:27:28.287Z,95801.20
2019-03-10T09:31:46.671Z,95783.47
2019-03-10T09:36:04.945Z,95782.88
2019-03-10T09:40:12.682Z,95767.70
2019-03-10T09:44:14.357Z,95724.73
2019-03-10T09:48:24.797Z,95724.76
2019-03-10T09:52:26.453Z,95715.72
2019-03-10T09:56:43.235Z,95704.73
2019-03-10T10:01:02.479Z,95684.92
2019-03-10T10:05:10.523Z,95681.33
2019-03-10T10:09:25.932Z,95673.75
2019-03-10T10:13:38.435Z,95667.48
2019-03-10T10:17:42.679Z,95654.91
2019-03-10T10:21:44.346Z,95652.07
2019-03-10T10:25:47.889Z,95650.84
2019-03-10T10:30:09.733Z,95643.00
2019-03-10T10:34:31.256Z,95645.14
2019-03-10T10:38:50.875Z,95618.27
2019-03-10T10:43:07.771Z,95620.19
2019-03-10T10:47:14.930Z,95601.28
2019-03-10T10:51:19.302Z,95605.85
2019-03-10T10:55:25.717Z,95606.91
2019-03-10T10:59:29.250Z,95595.08
2019-03-10T11:03:44.861Z,95596.46
2019-03-10T11:07:50.824Z,95584.31
2019-03-10T11:12:06.580Z,95581.12
2019-03-10T11:16:10.123Z,95583.02
2019-03-10T11:20:13.918Z,95560.33
2019-03-10T11:24:17.489Z,95563.59
2019-03-10T11:28:39.360Z,95555.44
2019-03-10T11:32:42.917Z,95547.53
2019-03-10T11:36:52.090Z,95554.49
2019-03-10T11:40:56.685Z,95527.77
2019-03-10T11:45:00.440Z,95515.09
2019-03-10T11:49:07.083Z,95501.06
2019-03-10T11:53:18.741Z,95484.88
2019-03-10T11:57:31.917Z,95499.98
2019-03-10T12:01:41.281Z,95478.48
2019-03-10T12:06:02.628Z,95485.12
2019-03-10T12:10:07.361Z,95477.16
2019-03-10T12:14:09.480Z,95461.25
2019-03-10T12:18:11.379Z,95453.53
2019-03-10T12:22:13.318Z,95446.09
2019-03-10T12:26:15.304Z,95447.12
2019-03-10T12:30:17.880Z,95438.34
2019-03-10T12:34:19.844Z,95417.13
2019-03-10T12:38:21.816Z,95417.90
2019-03-10T12:42:23.715Z,95395.59
2019-03-10T12:46:25.808Z,95393.47
2019-03-10T12:50:27.725Z,95388.75
2019-03-10T12:54:29.939Z,95380.83
2019-03-10T12:58:31.962Z,95380.60
2019-03-10T13:02:34.092Z,95359.94
2019-03-10T13:06:36.114Z,95354.69
2019-03-10T13:10:38.039Z,95369.29
2019-03-10T13:14:39.942Z,95379.67
2019-03-10T13:18:41.860Z,95356.63
2019-03-10T13:22:43.921Z,95373.82
2019-03-10T13:26:45.833Z,95371.72
2019-03-10T13:30:47.786Z,95391.32
2019-03-10T13:34:49.695Z,95384.16
2019-03-10T13:38:51.619Z,95339.31
2019-03-10T13:42:53.655Z,95336.07
2019-03-10T13:46:55.606Z,95339.23
2019-03-10T13:50:57.548Z,95375.61
2019-03-10T13:54:59.449Z,95394.70
2019-03-10T13:59:01.659Z,95390.70
2019-03-10T14:03:03.575Z,95361.01
2019-03-10T14:07:05.668Z,95349.58
2019-03-10T14:11:07.580Z,95363.88
2019-03-10T14:15:15.909Z,95361.26
2019-03-10T14:19:17.862Z,95390.19
2019-03-10T14:23:19.737Z,95368.80
2019-03-10T14:27:21.657Z,95390.56
2019-03-10T14:31:23.576Z,95365.64
2019-03-10T14:35:25.482Z,95414.94
2019-03-10T14:39:35.859Z,95412.53
2019-03-10T14:43:37.757Z,95407.23
2019-03-10T14:47:39.681Z,95427.89
2019-03-10T14:51:41.577Z,95411.91
2019-03-10T14:55:43.487Z,95414.55
2019-03-10T14:59:45.405Z,95429.16
2019-03-10T15:03:47.323Z,95438.73
2019-03-10T15:07:49.248Z,95422.81
2019-03-10T15:11:51.161Z,95446.97
2019-03-10T15:15:53.061Z,95452.48
2019-03-10T15:19:54.976Z,95460.61
2019-03-10T15:23:56.894Z,95446.32
2019-03-10T15:27:58.827Z,95461.55
2019-03-10T15:32:00.737Z,95463.61
2019-03-10T15:36:02.649Z,95415.38
2019-03-10T15:40:07.830Z,95484.31
2019-03-10T15:44:09.733Z,95475.56
2019-03-10T15:48:11.655Z,95452.50
2019-03-10T15:52:13.576Z,95467.32
2019-03-10T15:56:15.464Z,95482.18
2019-03-10T16:00:20.706Z,95471.56
2019-03-10T16:04:22.896Z,95477.10
2019-03-10T16:08:24.803Z,95507.59
2019-03-10T16:12:26.730Z,95506.55
2019-03-10T16:16:28.637Z,95503.89
2019-03-10T16:20:30.553Z,95507.36
2019-03-10T16:24:32.472Z,95526.97
2019-03-10T16:28:34.395Z,95517.17
2019-03-10T16:32:36.310Z,95577.10
2019-03-10T16:36:38.216Z,95555.37
2019-03-10T16:40:40.137Z,95536.01
2019-03-10T16:44:42.054Z,95559.06
2019-03-10T16:48:44.032Z,95570.47
2019-03-10T16:52:45.976Z,95563.84
2019-03-10T16:56:47.881Z,95585.32
2019-03-10T17:00:49.865Z,95599.09
2019-03-10T17:04:51.772Z,95587.96
2019-03-10T17:08:53.695Z,95600.17
2019-03-10T17:12:55.976Z,95635.39
2019-03-10T17:16:57.893Z,95695.80
2019-03-10T17:20:59.792Z,95645.97
2019-03-10T17:25:01.721Z,95650.74
2019-03-10T17:29:03.637Z,95669.00
2019-03-10T17:33:05.645Z,95689.39
2019-03-10T17:37:07.567Z,95690.94
2019-03-10T17:41:09.481Z,95700.98
2019-03-10T17:45:22.981Z,95728.47
2019-03-10T17:49:24.972Z,95701.72
2019-03-10T17:53:26.902Z,95745.87
2019-03-10T17:57:30.045Z,95743.47
2019-03-10T18:01:31.964Z,95750.02
2019-03-10T18:05:33.881Z,95754.70
2019-03-10T18:09:35.801Z,95781.11
2019-03-10T18:13:37.697Z,95766.56
2019-03-10T18:17:39.601Z,95773.17
2019-03-10T18:21:41.511Z,95832.37
2019-03-10T18:25:43.491Z,95814.82
2019-03-10T18:29:45.395Z,95859.42
2019-03-10T18:33:47.292Z,95881.88
2019-03-10T18:37:50.179Z,95871.67
2019-03-10T18:41:52.102Z,95858.53
2019-03-10T18:45:54.006Z,95860.27
2019-03-10T18:49:55.963Z,95883.45
2019-03-10T18:53:57.965Z,95890.50
2019-03-10T18:57:59.872Z,95897.84
2019-03-10T19:02:01.786Z,95882.62
2019-03-10T19:06:04.953Z,95876.20
2019-03-10T19:10:13.030Z,95911.81
2019-03-10T19:14:14.962Z,95918.56
2019-03-10T19:18:16.856Z,95905.57
2019-03-10T19:22:18.764Z,95915.83
2019-03-10T19:26:21.131Z,95916.52
2019-03-10T19:30:24.662Z,95915.25
2019-03-10T19:34:26.581Z,95902.30
2019-03-10T19:38:30.187Z,95962.52
2019-03-10T19:42:32.159Z,95987.38
2019-03-10T19:46:34.046Z,95995.17
2019-03-10T19:50:35.955Z,95999.63
2019-03-10T19:54:37.888Z,95991.30
2019-03-10T19:58:42.816Z,96012.67
2019-03-10T20:02:45.040Z,96009.73
2019-03-10T20:06:47.935Z,96023.73
2019-03-10T20:10:49.813Z,96033.15
2019-03-10T20:14:51.715Z,96054.80
2019-03-10T20:18:53.614Z,96068.36
2019-03-10T20:22:55.637Z,96094.03
2019-03-10T20:26:57.538Z,96090.56
2019-03-10T20:30:59.446Z,96117.48
2019-03-10T20:35:01.331Z,96148.42
2019-03-10T20:39:05.059Z,96205.39
2019-03-10T20:43:08.566Z,96225.23
2019-03-10T20:47:10.465Z,96234.40
2019-03-10T20:51:12.363Z,96262.47
2019-03-10T20:55:15.403Z,96289.87
2019-03-10T20:59:17.296Z,96275.28
2019-03-10T21:03:19.202Z,96263.61
2019-03-10T21:07:21.134Z,96268.46
2019-03-10T21:11:23.041Z,96295.87
2019-03-10T21:15:26.594Z,96305.39
2019-03-10T21:19:28.718Z,96300.92
2019-03-10T21:23:30.630Z,96305.16
2019-03-10T21:27:32.537Z,96319.80
2019-03-10T21:31:35.437Z,96327.73
2019-03-10T21:35:37.353Z,96336.42
2019-03-10T21:39:39.234Z,96352.55
2019-03-10T21:43:41.145Z,96357.68
2019-03-10T21:47:43.033Z,96358.20
2019-03-10T21:51:44.937Z,96370.67
2019-03-10T21:55:46.846Z,96373.50
2019-03-10T21:59:48.732Z,96377.15
2019-03-10T22:03:50.636Z,96379.55
2019-03-10T22:07:52.541Z,96383.80
2019-03-10T22:11:55.407Z,96394.78
2019-03-10T22:15:57.313Z,96407.59
2019-03-10T22:19:59.197Z,96415.25
2019-03-10T22:24:03.181Z,96445.60
2019-03-10T22:28:05.290Z,96449.11
2019-03-10T22:32:07.190Z,96434.80
2019-03-10T22:36:09.097Z,96452.76
2019-03-10T22:40:14.356Z,96453.25
2019-03-10T22:44:16.256Z,96455.27
2019-03-10T22:48:18.159Z,96470.29
2019-03-10T22:52:20.063Z,96483.50
2019-03-10T22:56:21.971Z,96486.94
2019-03-10T23:00:27.704Z,96500.75
2019-03-10T23:04:32.848Z,96501.04
2019-03-10T23:08:34.749Z,96506.39
2019-03-10T23:12:36.650Z,96507.38
2019-03-10T23:16:38.550Z,96515.95
2019-03-10T23:20:41.525Z,96516.55
2019-03-10T23:24:43.422Z,96524.73
2019-03-10T23:28:45.327Z,96525.31
2019-03-10T23:32:47.229Z,96552.30
2019-03-10T23:36:49.133Z,96557.53
2019-03-10T23:40:51.025Z,96568.43
2019-03-10T23:44:54.514Z,96572.06
2019-03-10T23:48:56.413Z,96590.99
2019-03-10T23:52:58.316Z,96590.12
2019-03-10T23:57:00.217Z,96585.95
